Time;durP1;ratioP1;P1;durP2;ratioP2;P2;SDS_P1;SDS_P2;PMS_P1;PMS_P2;Temp;Humidity;BMP_temperature;BMP_pressure;BME280_temperature;BME280_humidity;BME280_pressure;Samples;Min_cycle;Max_cycle;Signal;HPM_P1;HPM_P2
2021/12/29 00:00:06;;;;;;;0.80;0.75;;;;;;;8.38;71.93;98322.44;10409516;28;20041;-68
2021/12/29 00:05:09;;;;;;;1.58;0.95;;;;;;;8.40;71.52;98341.41;10408553;28;20053;-68
2021/12/29 00:10:12;;;;;;;0.93;0.90;;;;;;;8.48;71.34;98346.84;10409382;28;20138;-68
2021/12/29 00:15:16;;;;;;;3.60;1.10;;;;;;;8.48;71.56;98356.44;10408914;28;20059;-68
2021/12/29 00:20:22;;;;;;;2.25;0.90;;;;;;;8.44;71.65;98357.63;10407730;28;20132;-68
2021/12/29 00:25:24;;;;;;;1.17;0.80;;;;;;;8.36;71.73;98367.78;10408394;28;20132;-68
2021/12/29 00:30:27;;;;;;;1.30;0.90;;;;;;;8.50;71.15;98367.56;10407675;28;20061;-68
2021/12/29 00:35:29;;;;;;;1.75;0.90;;;;;;;8.56;70.88;98367.09;10407222;28;20053;-68
2021/12/29 00:40:31;;;;;;;1.75;0.95;;;;;;;8.57;70.86;98376.56;10407995;28;20151;-68
2021/12/29 00:45:36;;;;;;;1.15;0.90;;;;;;;8.60;70.58;98391.97;10391346;28;20403;-68
2021/12/29 00:50:39;;;;;;;1.02;0.90;;;;;;;8.66;70.39;98386.28;10407040;28;20049;-69
2021/12/29 00:55:41;;;;;;;2.15;1.10;;;;;;;8.59;70.50;98406.78;10407717;28;20144;-68
2021/12/29 01:00:42;;;;;;;1.10;1.00;;;;;;;8.64;70.18;98419.47;10406820;28;20049;-68
2021/12/29 01:05:45;;;;;;;1.63;1.10;;;;;;;8.58;69.95;98425.13;10406649;28;20076;-68
2021/12/29 01:10:48;;;;;;;1.33;1.10;;;;;;;8.59;69.62;98445.03;10406283;28;20053;-68
2021/12/29 01:16:16;;;;;;;2.78;1.30;;;;;;;8.69;69.35;98464.22;10406242;28;20152;-65
2021/12/29 01:21:17;;;;;;;2.40;1.50;;;;;;;8.69;69.00;98477.25;10405430;28;20058;-68
2021/12/29 01:26:19;;;;;;;1.85;1.20;;;;;;;8.70;68.73;98486.75;10405981;28;20473;-68
2021/12/29 01:31:21;;;;;;;1.77;1.20;;;;;;;8.70;69.01;98512.81;10405660;28;20381;-68
2021/12/29 01:36:22;;;;;;;2.33;1.30;;;;;;;8.65;69.34;98514.94;10405470;28;20049;-68
2021/12/29 01:41:24;;;;;;;1.73;1.20;;;;;;;8.59;69.75;98525.81;10405274;28;20049;-68
2021/12/29 01:46:26;;;;;;;3.83;1.50;;;;;;;8.53;70.23;98526.25;10404191;28;20471;-68
2021/12/29 01:51:30;;;;;;;2.10;1.40;;;;;;;8.47;70.47;98537.13;10404703;28;20482;-68
2021/12/29 01:56:32;;;;;;;4.22;1.70;;;;;;;8.50;70.35;98539.53;10404820;28;20083;-68
2021/12/29 02:01:34;;;;;;;2.17;1.30;;;;;;;8.46;70.60;98558.94;10404921;28;20041;-68
2021/12/29 02:06:36;;;;;;;2.78;1.70;;;;;;;8.45;70.34;98555.47;10404204;28;20182;-68
2021/12/29 02:11:38;;;;;;;3.47;1.60;;;;;;;8.43;70.07;98578.22;10403168;28;20057;-68
2021/12/29 02:16:40;;;;;;;4.38;1.35;;;;;;;8.51;69.87;98575.03;10402778;28;20128;-68
2021/12/29 02:21:50;;;;;;;3.55;1.38;;;;;;;8.49;70.19;98582.97;10402603;28;20045;-68
2021/12/29 02:26:52;;;;;;;3.05;1.63;;;;;;;8.38;70.61;98605.53;10403604;28;20096;-68
2021/12/29 02:31:54;;;;;;;1.80;1.30;;;;;;;8.30;70.92;98613.91;10403438;28;20181;-68
2021/12/29 02:36:58;;;;;;;2.20;1.63;;;;;;;8.37;70.64;98630.75;10402977;28;20057;-68
2021/12/29 02:42:04;;;;;;;3.53;1.98;;;;;;;8.42;70.39;98614.81;10403005;28;20041;-68
2021/12/29 02:47:07;;;;;;;3.00;1.40;;;;;;;8.43;70.13;98622.50;10403184;28;20075;-68
2021/12/29 02:52:10;;;;;;;2.15;1.20;;;;;;;8.45;69.84;98625.81;10403119;28;20049;-68
2021/12/29 02:57:12;;;;;;;1.63;1.15;;;;;;;8.50;69.46;98636.78;10405063;28;20072;-68
2021/12/29 03:02:14;;;;;;;3.50;1.73;;;;;;;8.56;69.36;98641.53;10414086;28;20042;-68
2021/12/29 03:07:15;;;;;;;4.90;1.70;;;;;;;8.56;69.41;98638.94;10418995;28;20439;-68
2021/12/29 03:12:17;;;;;;;4.30;1.75;;;;;;;8.51;69.49;98628.00;10419143;28;20041;-68
2021/12/29 03:17:19;;;;;;;2.97;1.38;;;;;;;8.56;69.47;98659.78;10417599;28;20047;-68
2021/12/29 03:22:21;;;;;;;2.85;1.17;;;;;;;8.62;69.51;98687.16;10418668;28;20081;-68
2021/12/29 03:27:23;;;;;;;3.83;1.40;;;;;;;8.63;69.15;98673.19;10418490;28;20088;-68
2021/12/29 03:32:37;;;;;;;4.90;1.55;;;;;;;8.52;69.34;98671.38;10418003;28;20088;-68
2021/12/29 03:37:39;;;;;;;2.85;1.10;;;;;;;8.53;69.53;98682.59;10418522;28;20473;-68
2021/12/29 03:42:41;;;;;;;2.53;1.10;;;;;;;8.55;69.30;98685.94;10417608;28;20112;-68
2021/12/29 03:47:42;;;;;;;2.97;1.40;;;;;;;8.58;69.13;98691.78;10417582;28;20530;-68
2021/12/29 03:52:44;;;;;;;3.50;1.30;;;;;;;8.57;68.95;98710.09;10417953;28;20530;-68
2021/12/29 03:57:46;;;;;;;3.53;1.20;;;;;;;8.52;68.96;98704.41;10417517;28;20132;-68
2021/12/29 04:02:48;;;;;;;1.33;1.00;;;;;;;8.55;68.82;98719.81;10414729;28;20132;-68
2021/12/29 04:07:53;;;;;;;2.80;1.20;;;;;;;8.38;69.05;98715.81;10410668;28;20054;-68
2021/12/29 04:12:56;;;;;;;1.90;1.33;;;;;;;8.36;69.54;98735.06;10409341;28;20095;-68
2021/12/29 04:17:59;;;;;;;1.75;1.20;;;;;;;8.51;68.65;98736.59;10409334;28;20472;-68
2021/12/29 04:23:03;;;;;;;1.33;0.98;;;;;;;8.36;68.66;98746.34;10408843;28;20091;-68
2021/12/29 04:28:09;;;;;;;2.25;1.10;;;;;;;8.42;68.54;98758.09;10407382;28;20064;-68
2021/12/29 04:33:11;;;;;;;1.13;1.02;;;;;;;8.50;68.31;98772.25;10410273;28;20088;-68
2021/12/29 04:38:13;;;;;;;1.95;1.10;;;;;;;8.42;68.23;98786.75;10408011;28;20122;-68
2021/12/29 04:43:14;;;;;;;2.42;1.10;;;;;;;8.36;68.46;98797.59;10408147;28;20041;-68
2021/12/29 04:48:17;;;;;;;2.95;1.02;;;;;;;8.34;68.77;98809.91;10408269;28;20060;-68
2021/12/29 04:53:23;;;;;;;1.52;1.05;;;;;;;8.31;68.71;98818.75;10407895;28;20186;-68
2021/12/29 04:58:25;;;;;;;2.60;1.00;;;;;;;8.22;68.92;98834.16;10406113;28;20558;-68
2021/12/29 05:03:27;;;;;;;2.45;0.90;;;;;;;8.21;68.95;98845.50;10407125;28;20504;-68
2021/12/29 05:08:29;;;;;;;4.85;1.17;;;;;;;8.16;68.97;98853.63;10407030;28;20144;-68
2021/12/29 05:13:33;;;;;;;1.10;1.00;;;;;;;8.32;68.40;98845.63;10406742;28;20081;-68
2021/12/29 05:18:36;;;;;;;3.50;1.10;;;;;;;8.21;68.59;98850.72;10407119;28;20569;-67
2021/12/29 05:23:38;;;;;;;2.05;1.20;;;;;;;8.12;68.85;98856.56;10406722;28;20103;-68
2021/12/29 05:28:40;;;;;;;3.00;1.10;;;;;;;8.16;68.70;98865.84;10406265;28;20405;-68
2021/12/29 05:33:43;;;;;;;1.50;1.05;;;;;;;8.07;69.08;98866.41;10406637;28;20052;-68
2021/12/29 05:38:45;;;;;;;0.98;0.85;;;;;;;7.88;69.48;98878.03;10406291;28;20052;-68
2021/12/29 05:43:47;;;;;;;1.30;1.13;;;;;;;7.99;69.47;98896.41;10406164;28;20132;-68
2021/12/29 05:48:48;;;;;;;2.20;1.20;;;;;;;7.95;69.44;98894.94;10405765;28;20124;-68
2021/12/29 05:53:50;;;;;;;3.72;1.20;;;;;;;7.91;69.52;98892.63;10405551;28;20077;-68
2021/12/29 05:58:52;;;;;;;3.78;1.40;;;;;;;7.98;69.50;98905.13;10405880;28;20128;-68
2021/12/29 06:03:54;;;;;;;1.95;1.40;;;;;;;8.09;69.42;98912.25;10405648;28;20077;-69
2021/12/29 06:08:56;;;;;;;2.60;1.30;;;;;;;7.99;69.50;98927.63;10405416;28;20045;-68
2021/12/29 06:13:58;;;;;;;2.00;1.30;;;;;;;8.08;69.37;98935.78;10404753;28;20073;-68
2021/12/29 06:19:00;;;;;;;2.70;1.30;;;;;;;8.15;69.17;98937.06;10404024;28;20505;-68
2021/12/29 06:24:02;;;;;;;1.65;1.20;;;;;;;8.03;69.42;98939.53;10404396;28;20046;-68
2021/12/29 06:29:04;;;;;;;3.30;1.50;;;;;;;8.04;69.49;98951.59;10404451;28;20088;-68
2021/12/29 06:34:05;;;;;;;1.95;1.38;;;;;;;7.96;69.70;98963.44;10403850;28;20048;-68
2021/12/29 06:39:07;;;;;;;2.97;1.40;;;;;;;7.96;69.48;98969.47;10404537;28;20494;-69
2021/12/29 06:44:09;;;;;;;3.08;1.48;;;;;;;7.95;69.46;98975.63;10403948;28;20551;-68
2021/12/29 06:49:10;;;;;;;2.05;1.30;;;;;;;7.92;69.51;98983.63;10403069;28;20141;-68
2021/12/29 06:54:12;;;;;;;2.25;1.48;;;;;;;8.02;68.98;98978.66;10404083;28;20087;-68
2021/12/29 06:59:14;;;;;;;2.17;1.40;;;;;;;8.04;68.85;98982.84;10402850;28;20483;-68
2021/12/29 07:04:16;;;;;;;2.92;1.30;;;;;;;8.01;68.62;98995.22;10402491;28;20054;-68
2021/12/29 07:09:19;;;;;;;1.83;1.30;;;;;;;8.13;68.32;98986.66;10385920;28;20052;-69
2021/12/29 07:14:22;;;;;;;1.95;1.33;;;;;;;8.08;68.26;98993.88;10403387;28;20483;-68
2021/12/29 07:19:23;;;;;;;2.63;1.40;;;;;;;8.13;67.64;99010.09;10402349;28;20054;-68
2021/12/29 07:24:26;;;;;;;2.58;1.50;;;;;;;8.10;67.67;99017.25;10403551;28;20046;-68
2021/12/29 07:29:28;;;;;;;1.92;1.30;;;;;;;8.22;67.29;99021.69;10401841;28;20053;-68
2021/12/29 07:34:30;;;;;;;2.72;1.60;;;;;;;8.17;67.19;99036.78;10402915;28;20073;-68
2021/12/29 07:39:32;;;;;;;7.13;1.90;;;;;;;8.09;66.96;99041.59;10403425;28;20061;-68
2021/12/29 07:44:33;;;;;;;7.50;3.03;;;;;;;8.11;66.37;99045.81;10406435;28;20413;-68
2021/12/29 07:49:35;;;;;;;6.53;3.70;;;;;;;8.30;65.96;99056.75;10409320;28;20049;-68
2021/12/29 07:54:37;;;;;;;11.85;6.97;;;;;;;8.36;65.63;99071.97;10410554;28;20041;-68
2021/12/29 07:59:39;;;;;;;11.75;6.82;;;;;;;8.36;65.64;99073.75;10409645;28;20509;-68
2021/12/29 08:04:40;;;;;;;9.73;6.38;;;;;;;8.39;65.79;99078.75;10409727;28;20545;-68
2021/12/29 08:09:42;;;;;;;8.45;5.35;;;;;;;8.43;65.66;99072.41;10409783;28;20504;-68
2021/12/29 08:14:45;;;;;;;27.02;17.23;;;;;;;8.54;65.49;99069.94;10409856;28;20055;-68
2021/12/29 08:19:47;;;;;;;14.45;8.02;;;;;;;8.51;65.65;99081.41;10408854;28;20461;-68
2021/12/29 08:24:49;;;;;;;4.50;2.13;;;;;;;8.58;65.68;99082.69;10409665;28;20484;-68
2021/12/29 08:29:51;;;;;;;4.35;1.73;;;;;;;8.68;65.80;99104.59;10408512;28;20045;-68
2021/12/29 08:34:53;;;;;;;7.03;2.22;;;;;;;8.63;65.69;99100.59;10408579;28;20136;-68
2021/12/29 08:39:55;;;;;;;3.30;2.10;;;;;;;8.66;66.00;99113.44;10428144;28;20049;-68
2021/12/29 08:44:57;;;;;;;4.25;2.30;;;;;;;8.66;66.07;99116.91;10408170;28;20114;-68
2021/12/29 08:49:59;;;;;;;4.00;2.20;;;;;;;8.58;66.22;99118.31;10408166;28;20049;-68
2021/12/29 08:55:01;;;;;;;4.93;2.63;;;;;;;8.58;66.38;99119.16;10407409;28;20108;-68
2021/12/29 09:00:07;;;;;;;3.83;2.53;;;;;;;8.55;66.42;99114.13;10408339;28;20045;-68
2021/12/29 09:05:10;;;;;;;4.60;2.20;;;;;;;8.64;66.50;99112.72;10406355;28;20128;-68
2021/12/29 09:10:13;;;;;;;4.70;2.90;;;;;;;8.79;66.18;99116.94;10406005;28;21011;-68
2021/12/29 09:15:15;;;;;;;11.52;4.43;;;;;;;8.85;66.19;99114.75;10393479;28;20549;-68
2021/12/29 09:20:29;;;;;;;6.05;3.10;;;;;;;8.87;66.10;99114.69;10393290;28;20064;-68
2021/12/29 09:25:32;;;;;;;5.50;3.40;;;;;;;8.89;66.12;99123.22;10407308;28;20456;-67
2021/12/29 09:30:36;;;;;;;8.65;3.10;;;;;;;8.89;66.21;99120.63;10403191;28;20461;-66
2021/12/29 09:35:38;;;;;;;6.95;3.67;;;;;;;8.95;66.23;99127.19;10402782;28;20061;-66
2021/12/29 09:40:41;;;;;;;5.32;2.63;;;;;;;9.03;65.77;99137.97;10400447;28;20059;-66
2021/12/29 09:45:45;;;;;;;5.65;2.80;;;;;;;9.06;66.01;99137.75;10400255;28;20049;-67
2021/12/29 09:50:48;;;;;;;6.72;3.05;;;;;;;9.09;65.85;99143.63;10400019;28;20125;-67
2021/12/29 09:55:50;;;;;;;7.38;2.60;;;;;;;9.21;65.51;99147.19;10419635;28;20163;-66
2021/12/29 10:00:56;;;;;;;5.28;2.75;;;;;;;9.30;65.42;99149.19;10389945;28;20059;-67
2021/12/29 10:06:01;;;;;;;7.03;2.88;;;;;;;9.32;65.28;99147.31;10399815;28;20386;-69
2021/12/29 10:11:08;;;;;;;10.25;3.25;;;;;;;9.27;65.57;99134.56;10401268;28;20051;-68
2021/12/29 10:16:20;;;;;;;6.45;3.10;;;;;;;9.41;65.16;99128.41;10393871;28;20124;-76
2021/12/29 10:21:25;;;;;;;6.50;2.47;;;;;;;9.37;65.04;99127.78;10381572;28;20122;-76
2021/12/29 10:26:31;;;;;;;7.22;2.40;;;;;;;9.55;64.77;99126.53;10401043;28;20064;-77
2021/12/29 10:31:40;;;;;;;97.20;62.67;;;;;;;9.54;64.59;99124.84;10403263;28;20152;-75
2021/12/29 10:36:48;;;;;;;9.60;4.30;;;;;;;9.53;64.29;99125.81;10402879;28;20077;-75
2021/12/29 10:41:58;;;;;;;7.07;2.35;;;;;;;9.42;64.45;99123.06;10402620;28;20570;-75
2021/12/29 10:47:11;;;;;;;6.23;2.50;;;;;;;9.39;64.63;99127.69;10393313;28;20387;-76
2021/12/29 10:52:13;;;;;;;7.70;2.40;;;;;;;9.43;64.42;99137.81;10398356;28;20049;-75
2021/12/29 10:57:17;;;;;;;9.70;2.17;;;;;;;9.46;64.37;99128.94;10401216;28;20510;-76
2021/12/29 11:02:26;;;;;;;5.97;2.08;;;;;;;9.55;63.81;99133.53;10402056;28;20128;-75
2021/12/29 11:07:30;;;;;;;7.43;2.40;;;;;;;9.57;63.84;99113.38;10400518;28;20154;-75
2021/12/29 11:12:42;;;;;;;9.05;2.20;;;;;;;9.56;63.96;99124.78;10399880;28;20120;-71
2021/12/29 11:17:44;;;;;;;6.35;2.40;;;;;;;9.61;63.70;99125.28;10387547;28;20049;-78
2021/12/29 11:22:46;;;;;;;7.63;2.17;;;;;;;9.60;63.70;99121.84;10395155;28;20045;-76
2021/12/29 11:27:48;;;;;;;6.20;2.70;;;;;;;9.56;63.67;99124.78;10407757;28;20122;-77
2021/12/29 11:32:50;;;;;;;6.30;2.20;;;;;;;9.47;63.62;99121.00;10406940;28;20409;-76
2021/12/29 11:37:55;;;;;;;8.73;2.30;;;;;;;9.49;63.52;99118.28;10406324;28;20124;-77
2021/12/29 11:42:57;;;;;;;6.95;2.20;;;;;;;9.54;63.46;99121.44;10406162;28;21001;-77
2021/12/29 11:47:59;;;;;;;8.88;2.53;;;;;;;9.58;63.08;99128.91;10407069;28;20053;-77
2021/12/29 11:53:20;;;;;;;7.70;2.20;;;;;;;9.50;62.88;99120.78;10405670;28;20045;-76
2021/12/29 11:58:41;;;;;;;6.88;1.90;;;;;;;9.66;62.71;99133.66;10395470;28;20132;-76
2021/12/29 12:03:51;;;;;;;5.53;1.83;;;;;;;9.70;62.66;99142.13;10406982;28;20072;-76
2021/12/29 12:09:18;;;;;;;7.40;2.05;;;;;;;9.91;61.87;99136.25;10406399;28;20046;-77
2021/12/29 12:14:33;;;;;;;4.25;1.85;;;;;;;9.98;61.17;99154.94;10395858;28;20045;-76
2021/12/29 12:19:35;;;;;;;5.55;2.00;;;;;;;9.94;61.78;99151.72;10397603;28;20045;-77
2021/12/29 12:24:40;;;;;;;10.05;1.90;;;;;;;10.00;61.49;99155.66;10405696;28;20557;-77
2021/12/29 12:29:45;;;;;;;6.30;1.83;;;;;;;9.95;61.13;99134.28;10405192;28;20156;-76
2021/12/29 12:34:49;;;;;;;5.50;1.85;;;;;;;10.04;61.08;99115.31;10395637;28;20128;-76
2021/12/29 12:40:07;;;;;;;5.43;1.67;;;;;;;10.05;60.32;99106.56;10406877;28;20148;-77
2021/12/29 12:45:21;;;;;;;6.22;1.77;;;;;;;10.18;60.42;99131.69;10389634;28;21018;-77
2021/12/29 12:50:28;;;;;;;8.93;1.98;;;;;;;10.10;60.60;99135.78;10390454;28;20057;-77
2021/12/29 12:55:41;;;;;;;5.72;1.88;;;;;;;10.18;60.81;99146.53;10403765;28;20045;-76
2021/12/29 13:00:48;;;;;;;9.07;2.55;;;;;;;10.16;60.74;99140.59;10403630;28;20099;-77
2021/12/29 13:05:59;;;;;;;6.00;1.88;;;;;;;10.23;60.53;99124.38;10393298;28;20557;-77
2021/12/29 13:11:07;;;;;;;7.45;2.50;;;;;;;10.28;60.61;99124.88;10404759;28;20492;-77
2021/12/29 13:16:13;;;;;;;6.70;2.45;;;;;;;10.43;60.46;99122.97;10403610;28;20148;-77
2021/12/29 13:21:24;;;;;;;7.57;2.17;;;;;;;10.45;60.37;99131.53;10399198;28;20088;-77
2021/12/29 13:26:31;;;;;;;5.88;2.03;;;;;;;10.40;60.52;99128.38;10402882;28;20136;-77
2021/12/29 13:31:33;;;;;;;9.68;2.22;;;;;;;10.19;60.84;99133.38;10412267;28;20119;-77
2021/12/29 13:36:35;;;;;;;5.60;1.90;;;;;;;10.07;61.22;99126.41;10403939;28;20125;-77
2021/12/29 13:41:37;;;;;;;6.50;1.83;;;;;;;10.06;61.33;99139.56;10403629;28;20080;-77
2021/12/29 13:46:43;;;;;;;7.00;2.22;;;;;;;10.02;61.45;99151.16;10402370;28;20059;-77
2021/12/29 13:51:49;;;;;;;7.22;2.35;;;;;;;9.99;61.51;99148.78;10402550;28;20048;-77
2021/12/29 13:56:55;;;;;;;6.13;1.70;;;;;;;9.90;61.94;99128.53;10402828;28;20049;-77
2021/12/29 14:02:02;;;;;;;5.20;1.70;;;;;;;9.96;62.05;99122.88;10403132;28;20115;-77
2021/12/29 14:07:08;;;;;;;4.63;1.75;;;;;;;10.02;62.28;99123.28;10401755;28;20057;-77
2021/12/29 14:12:15;;;;;;;7.68;1.90;;;;;;;10.10;62.23;99104.44;10403009;28;20147;-77
2021/12/29 14:17:21;;;;;;;10.50;1.95;;;;;;;10.19;62.18;99098.59;10396490;28;20045;-77
2021/12/29 14:22:29;;;;;;;6.47;1.85;;;;;;;10.17;61.89;99103.09;10395387;28;20156;-77
2021/12/29 14:27:34;;;;;;;5.88;1.70;;;;;;;10.16;62.54;99104.00;10391603;28;20056;-76
2021/12/29 14:32:36;;;;;;;6.88;1.85;;;;;;;10.14;62.32;99105.91;10400845;28;20150;-76
2021/12/29 14:37:38;;;;;;;5.30;1.75;;;;;;;10.11;62.73;99112.19;10400224;28;20045;-77
2021/12/29 14:42:40;;;;;;;7.13;2.08;;;;;;;10.00;62.83;99108.66;10401165;28;20045;-77
2021/12/29 14:47:50;;;;;;;6.30;1.83;;;;;;;9.99;63.06;99112.22;10400571;28;20099;-77
2021/12/29 14:52:51;;;;;;;8.20;1.80;;;;;;;9.98;62.93;99102.69;10397134;28;20056;-74
2021/12/29 14:57:53;;;;;;;6.75;1.83;;;;;;;9.96;63.30;99099.34;10401164;28;20152;-74
2021/12/29 15:03:03;;;;;;;6.68;2.00;;;;;;;9.89;63.60;99098.13;10401009;28;20060;-75
2021/12/29 15:08:06;;;;;;;7.55;1.70;;;;;;;9.87;64.16;99103.44;10399374;28;20056;-74
2021/12/29 15:13:13;;;;;;;7.60;2.10;;;;;;;9.91;64.61;99098.88;10393940;28;20132;-75
2021/12/29 15:18:28;;;;;;;5.50;1.92;;;;;;;9.90;64.68;99091.97;10393118;28;20046;-74
2021/12/29 15:23:33;;;;;;;7.78;2.25;;;;;;;9.87;64.88;99094.81;10393387;28;20120;-75
2021/12/29 15:28:36;;;;;;;8.68;2.40;;;;;;;9.76;65.25;99108.59;10402940;28;20059;-75
2021/12/29 15:33:46;;;;;;;9.13;2.90;;;;;;;9.64;65.70;99102.44;10401709;28;20524;-75
2021/12/29 15:38:48;;;;;;;8.38;2.40;;;;;;;9.65;65.97;99090.19;10400875;28;20821;-75
2021/12/29 15:43:50;;;;;;;7.10;2.30;;;;;;;9.68;65.71;99099.63;10400550;28;20053;-75
2021/12/29 15:48:57;;;;;;;5.38;2.22;;;;;;;9.61;66.09;99086.97;10402664;28;20060;-75
2021/12/29 15:54:00;;;;;;;10.23;3.55;;;;;;;9.57;65.97;99069.00;10399906;28;20413;-75
2021/12/29 15:59:01;;;;;;;7.35;2.20;;;;;;;9.42;66.30;99070.88;10401366;28;20080;-74
2021/12/29 16:04:03;;;;;;;9.75;3.25;;;;;;;9.28;66.98;99091.06;10400769;28;20061;-76
2021/12/29 16:09:05;;;;;;;7.72;2.72;;;;;;;9.36;67.08;99076.53;10408763;28;20053;-75
2021/12/29 16:14:07;;;;;;;7.80;2.53;;;;;;;9.35;66.93;99060.97;10409176;28;20052;-67
2021/12/29 16:19:09;;;;;;;11.05;3.10;;;;;;;9.32;67.27;99076.84;10409146;28;20049;-67
2021/12/29 16:24:11;;;;;;;18.58;5.90;;;;;;;9.31;67.57;99057.75;10408396;28;20750;-67
2021/12/29 16:29:13;;;;;;;17.25;7.95;;;;;;;9.30;67.66;99037.00;10407415;28;20055;-68
2021/12/29 16:34:16;;;;;;;25.35;12.40;;;;;;;9.02;68.40;99056.28;10409319;28;20046;-67
2021/12/29 16:39:24;;;;;;;19.52;10.65;;;;;;;8.80;69.17;99069.06;10404871;28;20046;-68
2021/12/29 16:44:25;;;;;;;13.48;7.70;;;;;;;8.92;69.03;99051.75;10398285;28;20077;-69
2021/12/29 16:49:27;;;;;;;20.92;9.65;;;;;;;9.06;68.77;99054.28;10406830;28;20084;-68
2021/12/29 16:54:29;;;;;;;23.23;13.52;;;;;;;9.12;68.77;99041.66;10406933;28;20049;-68
2021/12/29 16:59:30;;;;;;;17.00;10.68;;;;;;;9.16;68.53;99050.09;10418012;28;20127;-68
2021/12/29 17:04:32;;;;;;;12.95;9.40;;;;;;;9.22;68.61;99050.53;10406339;28;20057;-68
2021/12/29 17:09:34;;;;;;;12.70;9.57;;;;;;;9.25;68.41;99058.16;10403753;28;20056;-68
2021/12/29 17:14:37;;;;;;;14.07;9.15;;;;;;;9.25;68.54;99065.16;10405193;28;20128;-68
2021/12/29 17:19:39;;;;;;;17.40;10.88;;;;;;;9.30;68.67;99058.66;10405022;28;20714;-68
2021/12/29 17:24:40;;;;;;;13.27;8.40;;;;;;;9.27;68.46;99061.50;10405331;28;20050;-68
2021/12/29 17:29:42;;;;;;;14.43;11.23;;;;;;;9.24;68.63;99061.69;10402799;28;20176;-67
2021/12/29 17:34:44;;;;;;;10.60;6.68;;;;;;;9.03;69.23;99052.75;10404596;28;20041;-67
2021/12/29 17:39:45;;;;;;;16.23;10.93;;;;;;;8.98;69.50;99053.97;10403032;28;20049;-68
2021/12/29 17:44:47;;;;;;;42.65;10.02;;;;;;;8.90;69.72;99056.25;10403556;28;20045;-66
2021/12/29 17:49:49;;;;;;;15.90;10.70;;;;;;;8.78;70.19;99052.69;10401160;28;20547;-68
2021/12/29 17:54:52;;;;;;;61.63;12.25;;;;;;;8.85;70.12;99067.00;10403069;28;20048;-68
2021/12/29 17:59:54;;;;;;;22.77;14.32;;;;;;;9.01;69.80;99053.78;10402764;28;20109;-68
2021/12/29 18:04:56;;;;;;;46.28;20.20;;;;;;;9.04;69.88;99054.38;10403223;28;20128;-68
2021/12/29 18:10:04;;;;;;;14.65;10.07;;;;;;;8.99;69.86;99056.50;10403634;28;20057;-68
2021/12/29 18:15:07;;;;;;;40.50;22.67;;;;;;;8.89;70.00;99065.88;10402436;28;20076;-68
2021/12/29 18:20:13;;;;;;;29.25;18.42;;;;;;;8.87;70.36;99072.13;10403828;28;20068;-68
2021/12/29 18:25:16;;;;;;;61.50;17.35;;;;;;;8.97;70.19;99076.63;10403349;28;20209;-68
2021/12/29 18:30:18;;;;;;;206.73;23.58;;;;;;;9.01;70.17;99069.41;10400661;28;20060;-68
2021/12/29 18:35:22;;;;;;;443.30;21.73;;;;;;;9.05;70.00;99056.06;10403049;28;20132;-68
2021/12/29 18:40:24;;;;;;;1178.63;45.15;;;;;;;9.09;69.76;99062.75;10401269;28;20041;-68
2021/12/29 18:45:26;;;;;;;617.80;45.65;;;;;;;9.09;69.67;99057.53;10403434;28;20095;-68
2021/12/29 18:50:29;;;;;;;39.13;15.77;;;;;;;9.03;69.89;99044.91;10404118;28;20081;-68
2021/12/29 18:55:35;;;;;;;13.52;11.13;;;;;;;8.91;70.56;99043.13;10404979;28;20080;-67
2021/12/29 19:00:39;;;;;;;29.58;16.60;;;;;;;8.84;70.76;99057.50;10400578;28;20140;-67
2021/12/29 19:05:41;;;;;;;27.35;16.42;;;;;;;8.91;70.55;99064.00;10403597;28;20144;-67
2021/12/29 19:10:43;;;;;;;59.10;24.15;;;;;;;9.06;70.33;99062.94;10403295;28;20049;-67
2021/12/29 19:15:45;;;;;;;194.75;18.60;;;;;;;9.04;70.41;99080.47;10403231;28;20132;-67
2021/12/29 19:20:48;;;;;;;173.07;32.50;;;;;;;9.00;70.29;99096.41;10403488;28;20038;-67
2021/12/29 19:25:50;;;;;;;36.78;21.05;;;;;;;8.88;70.82;99118.09;10403454;28;20132;-68
2021/12/29 19:30:54;;;;;;;58.22;23.42;;;;;;;9.07;70.48;99101.16;10402761;28;20057;-68
2021/12/29 19:35:56;;;;;;;34.05;19.05;;;;;;;9.10;70.59;99097.47;10400895;28;20681;-69
2021/12/29 19:41:01;;;;;;;30.98;17.67;;;;;;;9.02;71.13;99092.78;10407052;28;20041;-67
2021/12/29 19:46:03;;;;;;;21.27;13.02;;;;;;;8.99;71.59;99090.41;10410628;28;20568;-68
2021/12/29 19:51:06;;;;;;;22.88;12.10;;;;;;;9.00;71.85;99088.59;10408630;28;20497;-67
2021/12/29 19:56:07;;;;;;;12.88;4.78;;;;;;;8.94;72.73;99095.06;10420425;28;20141;-67
2021/12/29 20:01:09;;;;;;;22.10;7.25;;;;;;;9.04;72.88;99110.94;10403852;28;20387;-67
2021/12/29 20:06:12;;;;;;;47.90;16.77;;;;;;;9.10;73.21;99100.94;10407962;28;20088;-67
2021/12/29 20:11:14;;;;;;;5.03;3.78;;;;;;;9.11;73.36;99113.06;10406223;28;20381;-67
2021/12/29 20:16:18;;;;;;;4.80;2.90;;;;;;;9.23;73.22;99122.66;10433611;28;20133;-67
2021/12/29 20:21:20;;;;;;;3.38;2.20;;;;;;;9.22;73.52;99131.41;10408180;28;20076;-67
2021/12/29 20:26:22;;;;;;;3.47;2.08;;;;;;;9.27;73.86;99129.34;10407338;28;20084;-67
2021/12/29 20:31:24;;;;;;;7.35;2.28;;;;;;;9.30;74.20;99134.34;10406360;28;20056;-67
2021/12/29 20:36:26;;;;;;;3.05;2.03;;;;;;;9.43;73.75;99137.81;10407676;28;20049;-67
2021/12/29 20:41:27;;;;;;;4.32;1.70;;;;;;;9.42;74.08;99136.13;10407134;28;20581;-67
2021/12/29 20:46:30;;;;;;;2.65;1.50;;;;;;;9.51;73.65;99138.13;10406875;28;20124;-67
2021/12/29 20:51:32;;;;;;;2.53;1.40;;;;;;;9.51;73.87;99164.22;10404447;28;20049;-67
2021/12/29 20:56:36;;;;;;;1.90;1.30;;;;;;;9.60;74.07;99176.66;10406088;28;20071;-67
2021/12/29 21:01:38;;;;;;;1.52;1.20;;;;;;;9.71;73.79;99189.00;10406537;28;20095;-67
2021/12/29 21:06:40;;;;;;;2.08;1.25;;;;;;;9.68;74.03;99185.78;10406175;28;20560;-67
2021/12/29 21:11:43;;;;;;;1.83;1.20;;;;;;;9.80;73.81;99192.78;10405565;28;20045;-67
2021/12/29 21:16:45;;;;;;;2.53;1.27;;;;;;;9.83;74.08;99203.84;10405447;28;20051;-67
2021/12/29 21:21:47;;;;;;;1.55;1.20;;;;;;;9.89;73.90;99200.00;10405474;28;20049;-67
2021/12/29 21:26:48;;;;;;;1.63;1.20;;;;;;;9.92;73.65;99215.44;10406098;28;20080;-66
2021/12/29 21:31:50;;;;;;;2.78;1.20;;;;;;;9.88;74.30;99224.44;10404061;28;20088;-67
2021/12/29 21:36:52;;;;;;;2.20;1.10;;;;;;;9.92;74.39;99234.56;10405444;28;20104;-67
2021/12/29 21:41:54;;;;;;;1.75;1.20;;;;;;;10.06;74.31;99257.13;10405129;28;20128;-66
2021/12/29 21:46:55;;;;;;;1.75;1.35;;;;;;;10.13;74.08;99276.69;10405023;28;20045;-67
2021/12/29 21:51:57;;;;;;;4.32;1.25;;;;;;;10.20;73.96;99285.75;10404894;28;20041;-66
2021/12/29 21:57:19;;;;;;;3.47;1.80;;;;;;;10.20;74.30;99277.91;10387446;28;20537;-66
2021/12/29 22:02:21;;;;;;;15.15;7.65;;;;;;;10.33;73.94;99291.84;10402804;28;20706;-66
2021/12/29 22:07:23;;;;;;;4.20;1.95;;;;;;;10.33;73.83;99297.06;10405494;28;20060;-66
2021/12/29 22:12:24;;;;;;;2.72;2.00;;;;;;;10.35;73.89;99308.25;10404064;28;20049;-66
2021/12/29 22:17:26;;;;;;;6.03;2.45;;;;;;;10.35;73.93;99318.69;10403910;28;20136;-66
2021/12/29 22:22:28;;;;;;;4.95;4.45;;;;;;;10.41;73.57;99333.97;10403723;28;20076;-66
2021/12/29 22:27:32;;;;;;;4.72;1.85;;;;;;;10.42;73.55;99367.00;10402034;28;20149;-66
2021/12/29 22:32:34;;;;;;;2.63;1.88;;;;;;;10.45;73.56;99377.25;10403177;28;20131;-66
2021/12/29 22:37:38;;;;;;;3.55;2.00;;;;;;;10.48;73.39;99387.50;10403539;28;20140;-66
2021/12/29 22:42:40;;;;;;;4.97;2.25;;;;;;;10.43;73.59;99389.59;10417527;28;20131;-66
2021/12/29 22:47:42;;;;;;;2.83;1.40;;;;;;;10.45;73.49;99390.31;10401918;28;20054;-66
2021/12/29 22:52:45;;;;;;;3.97;1.50;;;;;;;10.47;73.29;99402.34;10402014;28;20043;-66
2021/12/29 22:57:46;;;;;;;1.80;1.30;;;;;;;10.49;73.21;99410.94;10403069;28;20046;-67
2021/12/29 23:02:48;;;;;;;5.13;2.00;;;;;;;10.66;72.89;99417.63;10402055;28;20057;-66
2021/12/29 23:07:51;;;;;;;2.70;1.60;;;;;;;10.66;72.90;99428.09;10413111;28;20053;-66
2021/12/29 23:12:52;;;;;;;3.00;1.70;;;;;;;10.76;72.75;99447.44;10400474;28;20049;-66
2021/12/29 23:17:55;;;;;;;6.88;4.85;;;;;;;10.81;72.46;99460.19;10410564;28;20490;-66
2021/12/29 23:23:03;;;;;;;2.63;1.33;;;;;;;10.91;72.13;99462.09;10410968;28;20122;-66
2021/12/29 23:28:14;;;;;;;15.57;9.32;;;;;;;10.89;72.25;99465.78;10410060;28;20156;-66
2021/12/29 23:33:22;;;;;;;;;;;;;;;10.54;72.78;99465.53;10411060;28;20092;-66
2021/12/29 23:38:24;;;;;;;7.00;3.20;;;;;;;10.89;72.33;99476.25;10409764;28;19921;-67